createdAt,value
2019-03-11T00:02:24.617Z,98259.91
2019-03-11T00:04:58.300Z,98262.76
2019-03-11T00:07:31.709Z,98254.16
2019-03-11T00:10:04.730Z,98253.09
2019-03-11T00:12:37.663Z,98273.34
2019-03-11T00:15:10.571Z,98276.27
2019-03-11T00:17:43.475Z,98273.66
2019-03-11T00:20:16.425Z,98279.82
2019-03-11T00:22:49.629Z,98267.55
2019-03-11T00:25:21.919Z,98280.91
2019-03-11T00:27:54.610Z,98280.59
2019-03-11T00:30:27.329Z,98283.95
2019-03-11T00:33:00.362Z,98294.69
2019-03-11T00:35:32.666Z,98297.67
2019-03-11T00:38:05.413Z,98294.69
2019-03-11T00:40:39.282Z,98289.44
2019-03-11T00:43:13.842Z,98311.33
2019-03-11T00:45:46.555Z,98326.64
2019-03-11T00:48:21.977Z,98353.70
2019-03-11T00:50:55.630Z,98345.50
2019-03-11T00:53:29.796Z,98325.80
2019-03-11T00:56:02.901Z,98349.96
2019-03-11T00:58:36.139Z,98362.47
2019-03-11T01:01:07.820Z,98357.17
2019-03-11T01:03:41.758Z,98346.13
2019-03-11T01:06:15.611Z,98336.10
2019-03-11T01:08:49.015Z,98355.42
2019-03-11T01:11:21.734Z,98364.89
2019-03-11T01:13:55.087Z,98320.42
2019-03-11T01:16:27.021Z,98307.63
2019-03-11T01:18:59.681Z,98306.77
2019-03-11T01:21:33.176Z,98306.47
2019-03-11T01:24:06.645Z,98297.75
2019-03-11T01:26:38.199Z,98299.06
2019-03-11T01:29:10.864Z,98306.01
2019-03-11T01:31:44.137Z,98296.19
2019-03-11T01:34:15.308Z,98299.11
2019-03-11T01:36:48.013Z,98298.20
2019-03-11T01:39:20.975Z,98295.47
2019-03-11T01:41:54.222Z,98299.02
2019-03-11T01:44:25.852Z,98294.88
2019-03-11T01:47:02.637Z,98294.13
2019-03-11T01:49:35.866Z,98293.87
2019-03-11T01:52:09.362Z,98292.62
2019-03-11T01:54:42.580Z,98289.44
2019-03-11T01:57:17.555Z,98286.45
2019-03-11T01:59:51.128Z,98278.80
2019-03-11T02:02:27.540Z,98273.56
2019-03-11T02:05:01.458Z,98274.80
2019-03-11T02:07:36.561Z,98272.36
2019-03-11T02:10:13.375Z,98267.14
2019-03-11T02:12:46.703Z,98264.30
2019-03-11T02:15:19.118Z,98257.00
2019-03-11T02:17:52.240Z,98252.02
2019-03-11T02:20:24.934Z,98248.14
2019-03-11T02:23:04.005Z,98242.94
2019-03-11T02:25:34.088Z,98238.11
2019-03-11T02:28:07.064Z,98236.98
2019-03-11T02:31:51.903Z,98234.84
2019-03-11T02:38:11.197Z,98234.48
2019-03-11T02:40:44.615Z,98242.28
2019-03-11T02:43:17.127Z,98240.73
2019-03-11T02:45:49.833Z,98236.00
2019-03-11T02:48:23.106Z,98228.40
2019-03-11T02:50:55.018Z,98229.08
2019-03-11T02:53:27.902Z,98211.61
2019-03-11T02:56:03.861Z,98213.55
2019-03-11T02:58:36.860Z,98213.22
2019-03-11T03:01:47.437Z,98218.60
2019-03-11T03:04:24.746Z,98214.56
2019-03-11T03:06:57.721Z,98211.14
2019-03-11T03:09:31.786Z,98207.69
2019-03-11T03:12:03.826Z,98207.34
2019-03-11T03:14:36.618Z,98204.14
2019-03-11T03:17:09.563Z,98206.88
2019-03-11T03:19:42.605Z,98208.21
2019-03-11T03:22:16.855Z,98192.23
2019-03-11T03:24:49.998Z,98197.75
2019-03-11T03:27:23.593Z,98191.03
2019-03-11T03:29:56.582Z,98191.94
2019-03-11T03:32:29.594Z,98187.44
2019-03-11T03:35:02.591Z,98184.07
2019-03-11T03:37:36.124Z,98176.92
2019-03-11T03:40:11.144Z,98178.02
2019-03-11T03:42:44.501Z,98182.76
2019-03-11T03:45:33.324Z,98184.60
2019-03-11T03:48:06.432Z,98179.22
2019-03-11T03:50:40.746Z,98167.17
2019-03-11T03:53:14.287Z,98162.03
2019-03-11T03:55:45.849Z,98147.02
2019-03-11T03:58:18.989Z,98143.30
2019-03-11T04:00:52.285Z,98140.21
2019-03-11T04:03:25.612Z,98138.63
2019-03-11T04:05:59.185Z,98133.37
2019-03-11T04:08:30.825Z,98126.33
2019-03-11T04:11:02.885Z,98118.41
2019-03-11T04:13:35.907Z,98110.47
2019-03-11T04:16:09.544Z,98111.89
2019-03-11T04:18:59.269Z,98108.34
2019-03-11T04:21:33.172Z,98098.27
2019-03-11T04:24:07.039Z,98093.89
2019-03-11T04:26:40.691Z,98099.27
2019-03-11T04:29:12.602Z,98101.39
2019-03-11T04:31:45.015Z,98096.02
2019-03-11T04:34:18.392Z,98083.50
2019-03-11T04:36:51.912Z,98091.84
2019-03-11T04:39:23.800Z,98077.28
2019-03-11T04:41:56.954Z,98081.57
2019-03-11T04:44:29.886Z,98072.98
2019-03-11T04:47:02.574Z,98069.62
2019-03-11T04:49:35.821Z,98062.59
2019-03-11T04:52:08.092Z,98067.26
2019-03-11T04:54:41.471Z,98059.98
2019-03-11T04:57:15.143Z,98064.63
2019-03-11T04:59:48.781Z,98055.42
2019-03-11T05:02:20.247Z,98059.96
2019-03-11T05:04:53.562Z,98049.93
2019-03-11T05:07:26.598Z,98038.47
2019-03-11T05:10:00.144Z,98051.13
2019-03-11T05:12:33.778Z,98043.36
2019-03-11T05:15:07.417Z,98052.20
2019-03-11T05:17:39.110Z,98042.05
2019-03-11T05:20:12.642Z,98036.42
2019-03-11T05:22:46.062Z,98035.70
2019-03-11T05:25:18.547Z,98023.78
2019-03-11T05:27:53.168Z,98026.41
2019-03-11T05:30:26.374Z,98014.59
2019-03-11T05:32:59.827Z,98020.67
2019-03-11T05:35:33.175Z,98013.98
2019-03-11T05:38:06.379Z,98016.36
2019-03-11T05:40:39.188Z,98015.75
2019-03-11T05:43:11.839Z,98018.64
2019-03-11T05:45:45.196Z,98021.71
2019-03-11T05:48:18.206Z,98008.46
2019-03-11T05:50:51.181Z,98006.56
2019-03-11T05:53:23.947Z,97998.80
2019-03-11T05:55:57.364Z,97994.16
2019-03-11T05:58:30.819Z,97997.88
2019-03-11T06:01:03.515Z,97989.98
2019-03-11T06:03:37.099Z,97995.11
2019-03-11T06:06:10.399Z,97995.11
2019-03-11T06:08:43.288Z,97997.16
2019-03-11T06:11:18.027Z,97992.50
2019-03-11T06:13:51.377Z,97990.81
2019-03-11T06:16:24.816Z,98000.23
2019-03-11T06:18:57.882Z,97999.30
2019-03-11T06:21:36.132Z,98009.55
2019-03-11T06:24:09.368Z,98019.95
2019-03-11T06:26:43.444Z,98021.27
2019-03-11T06:29:17.001Z,98029.86
2019-03-11T06:31:49.109Z,98029.17
2019-03-11T06:34:21.744Z,98022.95
2019-03-11T06:36:54.837Z,98029.99
2019-03-11T06:39:27.681Z,98041.20
2019-03-11T06:42:01.012Z,98032.97
2019-03-11T06:44:34.784Z,98038.34
2019-03-11T06:47:08.065Z,98039.42
2019-03-11T06:49:40.748Z,98048.13
2019-03-11T06:52:13.815Z,98054.69
2019-03-11T06:54:47.430Z,98063.27
2019-03-11T06:57:21.391Z,98070.56
2019-03-11T06:59:55.312Z,98063.03
2019-03-11T07:02:28.556Z,98091.57
2019-03-11T07:05:02.575Z,98112.47
2019-03-11T07:07:35.892Z,98099.48
2019-03-11T07:10:10.466Z,98105.86
2019-03-11T07:12:44.000Z,98127.69
2019-03-11T07:15:15.709Z,98122.34
2019-03-11T07:17:48.365Z,98139.27
2019-03-11T07:20:21.218Z,98130.41
2019-03-11T07:22:54.223Z,98131.53
2019-03-11T07:25:27.266Z,98136.01
2019-03-11T07:27:59.964Z,98124.20
2019-03-11T07:30:33.397Z,98140.65
2019-03-11T07:33:07.129Z,98146.12
2019-03-11T07:35:40.629Z,98142.56
2019-03-11T07:38:11.898Z,98138.02
2019-03-11T07:40:45.071Z,98150.57
2019-03-11T07:43:18.690Z,98152.62
2019-03-11T07:45:51.928Z,98169.05
2019-03-11T07:48:25.047Z,98168.94
2019-03-11T07:50:58.278Z,98166.20
2019-03-11T07:53:32.330Z,98169.90
2019-03-11T07:56:06.263Z,98171.70
2019-03-11T07:58:39.956Z,98169.90
2019-03-11T08:01:13.524Z,98178.03
2019-03-11T08:03:46.256Z,98178.39
2019-03-11T08:06:19.253Z,98174.23
2019-03-11T08:08:53.074Z,98165.16
2019-03-11T08:11:26.695Z,98181.87
2019-03-11T08:13:59.927Z,98190.92
2019-03-11T08:16:33.679Z,98210.16
2019-03-11T08:19:06.863Z,98201.84
2019-03-11T08:21:40.140Z,98202.88
2019-03-11T08:24:12.170Z,98205.84
2019-03-11T08:26:44.736Z,98205.95
2019-03-11T08:29:17.341Z,98200.48
2019-03-11T08:31:50.386Z,98200.70
2019-03-11T08:34:23.076Z,98201.91
2019-03-11T08:36:55.998Z,98189.66
2019-03-11T08:39:29.984Z,98191.14
2019-03-11T08:42:03.277Z,98192.92
2019-03-11T08:44:36.674Z,98195.44
2019-03-11T08:47:10.464Z,98203.44
2019-03-11T08:49:43.973Z,98206.47
2019-03-11T08:52:15.881Z,98203.87
2019-03-11T08:54:48.734Z,98215.09
2019-03-11T08:57:20.630Z,98199.80
2019-03-11T08:59:53.559Z,98193.97
2019-03-11T09:02:24.868Z,98205.41
2019-03-11T09:04:57.509Z,98214.91
2019-03-11T09:07:30.583Z,98222.30
2019-03-11T09:10:03.270Z,98229.12
2019-03-11T09:12:36.559Z,98224.39
2019-03-11T09:15:12.073Z,98222.88
2019-03-11T09:17:45.398Z,98229.42
2019-03-11T09:20:17.834Z,98223.17
2019-03-11T09:22:50.586Z,98230.75
2019-03-11T09:25:23.755Z,98228.89
2019-03-11T09:27:56.426Z,98228.70
2019-03-11T09:30:29.326Z,98229.70
2019-03-11T09:33:03.419Z,98231.61
2019-03-11T09:35:36.948Z,98226.23
2019-03-11T09:38:09.689Z,98211.84
2019-03-11T09:40:42.941Z,98215.55
2019-03-11T09:43:16.829Z,98219.63
2019-03-11T09:45:50.122Z,98219.97
2019-03-11T09:48:24.251Z,98217.86
2019-03-11T09:50:59.116Z,98215.94
2019-03-11T09:53:32.620Z,98215.80
2019-03-11T09:56:05.729Z,98214.38
2019-03-11T09:58:38.667Z,98214.80
2019-03-11T10:01:11.666Z,98218.77
2019-03-11T10:03:45.238Z,98236.77
2019-03-11T10:06:18.890Z,98224.54
2019-03-11T10:08:52.187Z,98216.64
2019-03-11T10:11:25.206Z,98229.02
2019-03-11T10:13:57.444Z,98241.34
2019-03-11T10:16:30.723Z,98228.25
2019-03-11T10:19:04.052Z,98226.03
2019-03-11T10:21:36.521Z,98233.74
2019-03-11T10:24:08.950Z,98239.80
2019-03-11T10:26:41.870Z,98222.52
2019-03-11T10:29:15.326Z,98230.75
2019-03-11T10:31:48.953Z,98230.04
2019-03-11T10:34:22.788Z,98236.64
2019-03-11T10:36:56.629Z,98240.39
2019-03-11T10:39:30.070Z,98245.93
2019-03-11T10:42:02.393Z,98259.70
2019-03-11T10:44:35.142Z,98256.13
2019-03-11T10:47:08.143Z,98252.67
2019-03-11T10:49:40.083Z,98252.55
2019-03-11T10:52:12.745Z,98275.05
2019-03-11T10:54:45.959Z,98261.77
2019-03-11T10:57:17.219Z,98261.39
2019-03-11T10:59:50.677Z,98254.86
2019-03-11T11:02:23.974Z,98254.64
2019-03-11T11:04:57.309Z,98257.83
2019-03-11T11:07:31.728Z,98256.06
2019-03-11T11:10:05.681Z,98250.57
2019-03-11T11:12:39.274Z,98255.67
2019-03-11T11:15:23.631Z,98247.67
2019-03-11T11:17:57.452Z,98239.48
2019-03-11T11:20:30.401Z,98239.20
2019-03-11T11:23:04.032Z,98235.78
2019-03-11T11:25:37.677Z,98232.05
2019-03-11T11:28:10.752Z,98223.53
2019-03-11T11:30:43.971Z,98238.66
2019-03-11T11:33:15.062Z,98242.27
2019-03-11T11:35:47.947Z,98274.35
2019-03-11T11:38:19.593Z,98274.32
2019-03-11T11:40:51.975Z,98276.31
2019-03-11T11:43:25.916Z,98298.78
2019-03-11T11:45:58.923Z,98307.00
2019-03-11T11:48:31.957Z,98309.69
2019-03-11T11:51:05.174Z,98314.81
2019-03-11T11:53:36.918Z,98317.77
2019-03-11T11:56:10.111Z,98303.27
2019-03-11T11:58:44.057Z,98297.75
2019-03-11T12:01:17.356Z,98296.13
2019-03-11T12:03:50.932Z,98296.15
2019-03-11T12:06:24.592Z,98282.59
2019-03-11T12:08:57.698Z,98281.69
2019-03-11T12:11:30.461Z,98268.52
2019-03-11T12:14:04.576Z,98273.90
2019-03-11T12:16:38.159Z,98262.58
2019-03-11T12:19:11.454Z,98263.48
2019-03-11T12:21:44.726Z,98265.58
2019-03-11T12:24:17.653Z,98270.88
2019-03-11T12:26:50.678Z,98283.13
2019-03-11T12:29:23.395Z,98284.59
2019-03-11T12:31:55.763Z,98284.30
2019-03-11T12:34:29.125Z,98313.38
2019-03-11T12:37:02.149Z,98324.57
2019-03-11T12:39:34.866Z,98327.24
2019-03-11T12:42:07.604Z,98320.70
2019-03-11T12:44:40.833Z,98321.73
2019-03-11T12:47:12.688Z,98311.24
2019-03-11T12:49:45.332Z,98302.20
2019-03-11T12:52:18.567Z,98299.69
2019-03-11T12:54:49.883Z,98302.69
2019-03-11T12:57:22.463Z,98296.34
2019-03-11T12:59:55.651Z,98296.16
2019-03-11T13:02:26.894Z,98300.36
2019-03-11T13:04:59.930Z,98303.26
2019-03-11T13:07:33.309Z,98318.95
2019-03-11T13:10:05.242Z,98320.18
2019-03-11T13:12:37.830Z,98319.87
2019-03-11T13:15:12.161Z,98319.23
2019-03-11T13:17:45.225Z,98315.60
2019-03-11T13:20:30.345Z,98312.55
2019-03-11T13:23:03.886Z,98312.03
2019-03-11T13:25:37.265Z,98315.44
2019-03-11T13:28:10.602Z,98327.91
2019-03-11T13:30:43.535Z,98361.36
2019-03-11T13:33:16.470Z,98374.04
2019-03-11T13:35:49.720Z,98364.56
2019-03-11T13:38:23.729Z,98385.36
2019-03-11T13:40:57.673Z,98376.81
2019-03-11T13:43:30.322Z,98363.16
2019-03-11T13:46:03.053Z,98371.29
2019-03-11T13:48:36.932Z,98388.97
2019-03-11T13:51:10.172Z,98381.77
2019-03-11T13:53:43.441Z,98375.82
2019-03-11T13:56:17.100Z,98383.80
2019-03-11T13:58:50.316Z,98368.22
2019-03-11T14:01:24.148Z,98378.47
2019-03-11T14:03:57.404Z,98378.75
2019-03-11T14:06:32.594Z,98384.83
2019-03-11T14:09:07.241Z,98400.64
2019-03-11T14:11:40.497Z,98392.06
2019-03-11T14:14:13.427Z,98401.80
2019-03-11T14:16:46.753Z,98409.80
2019-03-11T14:19:20.201Z,98412.95
2019-03-11T14:21:52.391Z,98415.86
2019-03-11T14:24:24.669Z,98406.30
2019-03-11T14:26:57.618Z,98399.84
2019-03-11T14:29:30.832Z,98414.97
2019-03-11T14:32:01.921Z,98425.57
2019-03-11T14:34:34.264Z,98434.91
2019-03-11T14:37:07.199Z,98444.19
2019-03-11T14:39:40.188Z,98468.63
2019-03-11T14:42:13.843Z,98449.71
2019-03-11T14:44:46.748Z,98452.81
2019-03-11T14:47:20.817Z,98460.61
2019-03-11T14:49:53.779Z,98465.53
2019-03-11T14:52:27.086Z,98466.59
2019-03-11T14:55:00.371Z,98461.57
2019-03-11T14:57:33.116Z,98463.09
2019-03-11T15:00:06.671Z,98464.19
2019-03-11T15:02:40.010Z,98471.98
2019-03-11T15:05:16.022Z,98468.75
2019-03-11T15:07:48.857Z,98454.97
2019-03-11T15:10:22.397Z,98463.95
2019-03-11T15:12:55.808Z,98472.95
2019-03-11T15:15:28.559Z,98465.70
2019-03-11T15:18:01.266Z,98460.55
2019-03-11T15:20:34.221Z,98450.53
2019-03-11T15:23:18.861Z,98457.12
2019-03-11T15:25:42.591Z,98454.84
2019-03-11T15:28:17.971Z,98457.49
2019-03-11T15:30:51.011Z,98467.32
2019-03-11T15:33:22.296Z,98469.34
2019-03-11T15:35:56.853Z,98464.46
2019-03-11T15:38:30.397Z,98467.67
2019-03-11T15:41:02.700Z,98462.31
2019-03-11T15:43:36.256Z,98469.23
2019-03-11T15:46:08.984Z,98478.81
2019-03-11T15:48:42.058Z,98474.27
2019-03-11T15:51:15.149Z,98468.04
2019-03-11T15:53:49.019Z,98462.42
2019-03-11T15:56:22.612Z,98469.98
2019-03-11T15:58:55.794Z,98467.56
2019-03-11T16:01:29.658Z,98468.66
2019-03-11T16:04:04.059Z,98476.92
2019-03-11T16:06:38.304Z,98475.02
2019-03-11T16:09:19.072Z,98469.72
2019-03-11T16:11:46.809Z,98476.42
2019-03-11T16:14:18.127Z,98479.56
2019-03-11T16:16:51.190Z,98487.95
2019-03-11T16:19:23.904Z,98483.73
2019-03-11T16:21:56.984Z,98495.47
2019-03-11T16:24:29.367Z,98527.77
2019-03-11T16:27:02.596Z,98534.72
2019-03-11T16:29:34.172Z,98539.70
2019-03-11T16:32:06.772Z,98532.09
2019-03-11T16:34:40.001Z,98507.69
2019-03-11T16:37:11.509Z,98518.44
2019-03-11T16:39:43.803Z,98527.56
2019-03-11T16:42:17.100Z,98535.03
2019-03-11T16:44:48.418Z,98535.44
2019-03-11T16:47:21.282Z,98531.13
2019-03-11T16:49:53.188Z,98526.52
2019-03-11T16:52:26.462Z,98525.95
2019-03-11T16:55:00.354Z,98537.30
2019-03-11T16:57:34.298Z,98539.47
2019-03-11T17:00:14.721Z,98544.98
2019-03-11T17:02:48.287Z,98551.24
2019-03-11T17:05:19.353Z,98559.81
2019-03-11T17:07:52.320Z,98574.52
2019-03-11T17:10:24.477Z,98570.42
2019-03-11T17:12:57.870Z,98555.38
2019-03-11T17:15:31.712Z,98574.77
2019-03-11T17:18:05.131Z,98572.43
2019-03-11T17:23:50.777Z,98564.97
2019-03-11T17:26:22.290Z,98571.53
2019-03-11T17:28:55.453Z,98575.59
2019-03-11T17:31:28.832Z,98570.35
2019-03-11T17:34:02.889Z,98581.05
2019-03-11T17:36:36.303Z,98580.41
2019-03-11T17:39:10.073Z,98586.29
2019-03-11T17:41:43.327Z,98587.11
2019-03-11T17:44:17.031Z,98599.53
2019-03-11T17:46:50.410Z,98598.39
2019-03-11T17:49:24.213Z,98599.23
2019-03-11T17:51:57.758Z,98588.73
2019-03-11T17:54:29.426Z,98588.64
2019-03-11T17:57:02.925Z,98594.05
2019-03-11T17:59:36.198Z,98594.84
2019-03-11T18:02:09.316Z,98599.21
2019-03-11T18:04:41.822Z,98602.49
2019-03-11T18:07:14.900Z,98597.34
2019-03-11T18:09:47.611Z,98610.66
2019-03-11T18:12:20.392Z,98618.89
2019-03-11T18:14:53.795Z,98630.89
2019-03-11T18:17:27.827Z,98636.53
2019-03-11T18:20:02.726Z,98625.97
2019-03-11T18:22:36.403Z,98627.48
2019-03-11T18:25:11.444Z,98626.63
2019-03-11T18:27:45.519Z,98626.63
2019-03-11T18:30:20.385Z,98640.69
2019-03-11T18:32:53.812Z,98640.49
2019-03-11T18:35:27.076Z,98646.13
2019-03-11T18:38:04.522Z,98656.70
2019-03-11T18:40:36.652Z,98668.02
2019-03-11T18:43:07.955Z,98659.49
2019-03-11T18:45:42.062Z,98673.77
2019-03-11T18:48:14.980Z,98657.66
2019-03-11T18:50:48.075Z,98665.73
2019-03-11T18:53:21.617Z,98666.84
2019-03-11T18:55:56.877Z,98667.05
2019-03-11T18:58:32.208Z,98676.89
2019-03-11T19:01:06.150Z,98667.51
2019-03-11T19:03:39.089Z,98671.64
2019-03-11T19:06:12.471Z,98664.81
2019-03-11T19:08:45.722Z,98669.02
2019-03-11T19:11:18.924Z,98658.25
2019-03-11T19:13:50.845Z,98665.02
2019-03-11T19:16:23.522Z,98673.61
2019-03-11T19:18:55.921Z,98665.73
2019-03-11T19:21:28.862Z,98666.42
2019-03-11T19:24:02.448Z,98665.92
2019-03-11T19:26:35.651Z,98677.38
2019-03-11T19:29:09.356Z,98669.70
2019-03-11T19:31:42.766Z,98670.45
2019-03-11T19:34:16.312Z,98666.87
2019-03-11T19:36:49.593Z,98664.22
2019-03-11T19:39:22.044Z,98661.07
2019-03-11T19:41:55.174Z,98659.90
2019-03-11T19:44:27.606Z,98662.78
2019-03-11T19:47:00.656Z,98663.64
2019-03-11T19:49:34.642Z,98652.19
2019-03-11T19:52:08.312Z,98650.45
2019-03-11T19:54:40.184Z,98652.25
2019-03-11T19:57:17.030Z,98664.25
2019-03-11T19:59:50.874Z,98660.98
2019-03-11T20:02:25.055Z,98666.33
2019-03-11T20:04:58.771Z,98661.15
2019-03-11T20:07:31.821Z,98656.23
2019-03-11T20:10:04.879Z,98641.95
2019-03-11T20:12:38.703Z,98644.86
2019-03-11T20:15:13.154Z,98639.74
2019-03-11T20:17:46.337Z,98634.81
2019-03-11T20:20:19.465Z,98641.02
2019-03-11T20:22:52.568Z,98640.81
2019-03-11T20:25:27.433Z,98641.98
2019-03-11T20:28:01.444Z,98639.25
2019-03-11T20:30:34.383Z,98630.67
2019-03-11T20:33:08.340Z,98630.02
2019-03-11T20:35:42.097Z,98630.92
2019-03-11T20:38:15.719Z,98633.49
2019-03-11T20:40:50.337Z,98632.23
2019-03-11T20:43:23.578Z,98630.12
2019-03-11T20:45:57.660Z,98633.85
2019-03-11T20:48:31.188Z,98629.89
2019-03-11T20:51:02.895Z,98620.30
2019-03-11T20:53:36.626Z,98622.42
2019-03-11T20:56:10.117Z,98629.58
2019-03-11T20:58:41.735Z,98635.78
2019-03-11T21:01:16.487Z,98637.56
2019-03-11T21:03:50.864Z,98647.72
2019-03-11T21:06:26.119Z,98656.70
2019-03-11T21:08:59.260Z,98657.38
2019-03-11T21:11:32.733Z,98680.94
2019-03-11T21:14:08.529Z,98685.09
2019-03-11T21:16:42.767Z,98695.74
2019-03-11T21:19:17.357Z,98694.02
2019-03-11T21:21:50.642Z,98708.41
2019-03-11T21:24:23.502Z,98693.23
2019-03-11T21:26:56.805Z,98694.45
2019-03-11T21:29:29.975Z,98701.41
2019-03-11T21:32:03.441Z,98700.13
2019-03-11T21:34:37.049Z,98693.27
2019-03-11T21:37:08.089Z,98688.19
2019-03-11T21:39:44.179Z,98683.23
2019-03-11T21:42:17.859Z,98684.05
2019-03-11T21:44:52.396Z,98682.73
2019-03-11T21:47:27.163Z,98692.42
2019-03-11T21:50:00.464Z,98689.17
2019-03-11T21:52:34.330Z,98697.90
2019-03-11T21:55:09.219Z,98690.02
2019-03-11T21:57:42.568Z,98685.62
2019-03-11T22:00:28.571Z,98683.36
2019-03-11T22:02:54.262Z,98688.52
2019-03-11T22:05:27.297Z,98676.53
2019-03-11T22:08:00.871Z,98686.64
2019-03-11T22:10:34.392Z,98673.74
2019-03-11T22:13:06.196Z,98679.70
2019-03-11T22:15:39.647Z,98677.66
2019-03-11T22:18:12.736Z,98689.97
2019-03-11T22:20:45.814Z,98708.26
2019-03-11T22:23:20.051Z,98705.79
2019-03-11T22:25:57.351Z,98715.73
2019-03-11T22:28:31.452Z,98706.55
2019-03-11T22:31:05.375Z,98702.20
2019-03-11T22:33:39.122Z,98731.50
2019-03-11T22:36:13.078Z,98742.38
2019-03-11T22:38:47.045Z,98743.42
2019-03-11T22:41:21.039Z,98747.06
2019-03-11T22:43:54.409Z,98734.03
2019-03-11T22:46:29.619Z,98753.11
2019-03-11T22:49:03.111Z,98747.66
2019-03-11T22:51:36.831Z,98758.17
2019-03-11T22:54:10.947Z,98755.55
2019-03-11T22:56:45.161Z,98770.09
2019-03-11T22:59:18.450Z,98769.62
2019-03-11T23:01:52.306Z,98768.67
2019-03-11T23:04:26.251Z,98780.39
2019-03-11T23:07:00.156Z,98775.24
2019-03-11T23:09:33.994Z,98776.39
2019-03-11T23:12:07.632Z,98769.83
2019-03-11T23:14:39.052Z,98775.44
2019-03-11T23:17:12.343Z,98782.86
2019-03-11T23:19:46.444Z,98784.00
2019-03-11T23:22:20.140Z,98793.36
2019-03-11T23:24:54.404Z,98799.93
2019-03-11T23:27:27.625Z,98798.06
2019-03-11T23:30:00.642Z,98814.45
2019-03-11T23:32:33.893Z,98812.94
2019-03-11T23:35:06.184Z,98817.63
2019-03-11T23:37:39.078Z,98822.23
2019-03-11T23:40:10.417Z,98824.44
2019-03-11T23:42:44.459Z,98836.27
2019-03-11T23:45:17.860Z,98843.85
2019-03-11T23:47:51.270Z,98846.22
2019-03-11T23:50:24.229Z,98849.80
2019-03-11T23:52:57.270Z,98852.98
2019-03-11T23:55:30.389Z,98853.05
2019-03-11T23:58:04.007Z,98864.52
